MZN145 RJBB-RJCC
Flight info
| Callsign | MZN145 |
|---|---|
| Flight time | 1h 31m |
| Altitude | 37000 |
| Route | NANKO NIKEX KYOTO SIGAK GUJYO Y13 SIRAO Y139 NAVER |
| Aircraft | B738/M-SDE2E3FGHIRWXY/LB1 |
Departure
| Time | 2026-02-21 23:59 |
|---|---|
| Airport | Kansai International Airport (RJBB) |
Arrival
| Time | 2026-02-22 01:30 |
|---|---|
| Airport | New Chitose Airport (RJCC) |
| Time | Latitude | Longitude | Altitude | Speed | Heading |
|---|---|---|---|---|---|
| 2026-02-21 23:39 | 34.42445 | 135.23290 | 22 ft | 0 kts | 322° |
| 2026-02-21 23:48 | 34.42439 | 135.23296 | 22 ft | 3 kts | 324° |
| 2026-02-21 23:48 | 34.42422 | 135.23309 | 24 ft | 3 kts | 331° |
| 2026-02-21 23:49 | 34.42404 | 135.23320 | 22 ft | 3 kts | 341° |
| 2026-02-21 23:49 | 34.42385 | 135.23326 | 22 ft | 2 kts | 354° |
| 2026-02-21 23:49 | 34.42379 | 135.23327 | 23 ft | 1 kts | 356° |
| 2026-02-21 23:51 | 34.42382 | 135.23333 | 23 ft | 1 kts | 63° |
| 2026-02-21 23:51 | 34.42392 | 135.23376 | 21 ft | 10 kts | 66° |
| 2026-02-21 23:52 | 34.42445 | 135.23460 | 21 ft | 14 kts | 50° |
| 2026-02-21 23:52 | 34.42517 | 135.23563 | 23 ft | 17 kts | 50° |
| 2026-02-21 23:52 | 34.42611 | 135.23560 | 22 ft | 17 kts | 319° |
| 2026-02-21 23:52 | 34.42715 | 135.23458 | 22 ft | 20 kts | 320° |
| 2026-02-21 23:53 | 34.42832 | 135.23344 | 22 ft | 23 kts | 321° |
| 2026-02-21 23:53 | 34.42963 | 135.23215 | 22 ft | 25 kts | 321° |
| 2026-02-21 23:53 | 34.43105 | 135.23077 | 22 ft | 28 kts | 321° |
| 2026-02-21 23:53 | 34.43262 | 135.22925 | 23 ft | 30 kts | 321° |
| 2026-02-21 23:54 | 34.43428 | 135.22763 | 23 ft | 32 kts | 321° |
| 2026-02-21 23:54 | 34.43593 | 135.22601 | 22 ft | 28 kts | 321° |
| 2026-02-21 23:54 | 34.43751 | 135.22447 | 23 ft | 30 kts | 321° |
| 2026-02-21 23:54 | 34.43810 | 135.22388 | 23 ft | 0 kts | 304° |
| 2026-02-21 23:55 | 34.43808 | 135.22383 | 23 ft | 1 kts | 256° |
| 2026-02-21 23:55 | 34.43785 | 135.22346 | 24 ft | 11 kts | 232° |
| 2026-02-21 23:55 | 34.43714 | 135.22239 | 23 ft | 21 kts | 231° |
| 2026-02-21 23:55 | 34.43600 | 135.22070 | 23 ft | 30 kts | 231° |
| 2026-02-21 23:56 | 34.43462 | 135.21864 | 23 ft | 33 kts | 231° |
| 2026-02-21 23:56 | 34.43315 | 135.21647 | 23 ft | 34 kts | 232° |
| 2026-02-21 23:56 | 34.43162 | 135.21418 | 23 ft | 36 kts | 230° |
| 2026-02-21 23:56 | 34.43003 | 135.21181 | 23 ft | 37 kts | 231° |
| 2026-02-21 23:57 | 34.42853 | 135.20958 | 22 ft | 28 kts | 231° |
| 2026-02-21 23:57 | 34.42758 | 135.20813 | 22 ft | 17 kts | 241° |
| 2026-02-21 23:57 | 34.42809 | 135.20690 | 26 ft | 19 kts | 319° |
| 2026-02-21 23:57 | 34.42920 | 135.20714 | 22 ft | 21 kts | 52° |
| 2026-02-21 23:58 | 34.43023 | 135.20868 | 22 ft | 36 kts | 51° |
| 2026-02-21 23:58 | 34.43324 | 135.21314 | 29 ft | 99 kts | 51° |
| 2026-02-21 23:58 | 34.43877 | 135.22136 | 28 ft | 150 kts | 50° |
| 2026-02-21 23:58 | 34.44564 | 135.23172 | 488 ft | 154 kts | 51° |
| 2026-02-21 23:59 | 34.45243 | 135.24186 | 1046 ft | 168 kts | 51° |
| 2026-02-21 23:59 | 34.46090 | 135.25284 | 1420 ft | 186 kts | 38° |
| 2026-02-21 23:59 | 34.47259 | 135.26035 | 2001 ft | 190 kts | 24° |
| 2026-02-21 23:59 | 34.48472 | 135.26707 | 2615 ft | 194 kts | 29° |
| 2026-02-22 00:00 | 34.49273 | 135.27212 | 2975 ft | 198 kts | 30° |
| 2026-02-22 00:00 | 34.50955 | 135.28332 | 3499 ft | 223 kts | 30° |
| 2026-02-22 00:00 | 34.52368 | 135.29301 | 3721 ft | 244 kts | 31° |
| 2026-02-22 00:00 | 34.53896 | 135.30384 | 3918 ft | 266 kts | 31° |
| 2026-02-22 00:01 | 34.55561 | 135.31575 | 4175 ft | 287 kts | 31° |
| 2026-02-22 00:01 | 34.57293 | 135.32821 | 4851 ft | 291 kts | 30° |
| 2026-02-22 00:01 | 34.59040 | 135.34088 | 5593 ft | 292 kts | 30° |
| 2026-02-22 00:01 | 34.60771 | 135.35346 | 6472 ft | 288 kts | 30° |
| 2026-02-22 00:02 | 34.62391 | 135.36798 | 7129 ft | 294 kts | 41° |
| 2026-02-22 00:02 | 34.63880 | 135.38540 | 7783 ft | 300 kts | 44° |
| 2026-02-22 00:02 | 34.65363 | 135.40335 | 8488 ft | 303 kts | 44° |
| 2026-02-22 00:02 | 34.66360 | 135.41534 | 8979 ft | 305 kts | 43° |
| 2026-02-22 00:03 | 34.67887 | 135.43349 | 9719 ft | 309 kts | 43° |
| 2026-02-22 00:03 | 34.69445 | 135.45176 | 10353 ft | 317 kts | 42° |
| 2026-02-22 00:03 | 34.71095 | 135.47096 | 10541 ft | 340 kts | 42° |
| 2026-02-22 00:03 | 34.72867 | 135.49147 | 10715 ft | 362 kts | 42° |
| 2026-02-22 00:04 | 34.74747 | 135.51319 | 10902 ft | 382 kts | 42° |
| 2026-02-22 00:04 | 34.76697 | 135.53574 | 11360 ft | 391 kts | 42° |
| 2026-02-22 00:04 | 34.78586 | 135.55981 | 11978 ft | 396 kts | 52° |
| 2026-02-22 00:04 | 34.80021 | 135.58852 | 12660 ft | 399 kts | 65° |
| 2026-02-22 00:05 | 34.80924 | 135.62054 | 13356 ft | 402 kts | 78° |
| 2026-02-22 00:05 | 34.81474 | 135.65408 | 14016 ft | 407 kts | 80° |
| 2026-02-22 00:05 | 34.82006 | 135.68807 | 14628 ft | 411 kts | 80° |
| 2026-02-22 00:05 | 34.82571 | 135.72226 | 15300 ft | 414 kts | 79° |
| 2026-02-22 00:06 | 34.83155 | 135.75619 | 15969 ft | 417 kts | 79° |
| 2026-02-22 00:06 | 34.83782 | 135.79081 | 16600 ft | 421 kts | 78° |
| 2026-02-22 00:06 | 34.84429 | 135.82569 | 17211 ft | 426 kts | 78° |
| 2026-02-22 00:06 | 34.85086 | 135.86104 | 17845 ft | 429 kts | 78° |
| 2026-02-22 00:07 | 34.85742 | 135.89660 | 18484 ft | 433 kts | 78° |
| 2026-02-22 00:07 | 34.86400 | 135.93251 | 19030 ft | 436 kts | 78° |
| 2026-02-22 00:07 | 34.87058 | 135.96858 | 19608 ft | 438 kts | 79° |
| 2026-02-22 00:07 | 34.87746 | 136.00475 | 20179 ft | 440 kts | 75° |
| 2026-02-22 00:08 | 34.88894 | 136.03949 | 20710 ft | 445 kts | 62° |
| 2026-02-22 00:08 | 34.90614 | 136.07079 | 21264 ft | 447 kts | 50° |
| 2026-02-22 00:08 | 34.92803 | 136.09775 | 21802 ft | 449 kts | 41° |
| 2026-02-22 00:08 | 34.95143 | 136.12307 | 22296 ft | 452 kts | 41° |
| 2026-02-22 00:09 | 34.97518 | 136.14838 | 22758 ft | 455 kts | 41° |
| 2026-02-22 00:09 | 34.99906 | 136.17392 | 23256 ft | 457 kts | 41° |
| 2026-02-22 00:09 | 35.02289 | 136.19966 | 23833 ft | 457 kts | 41° |
| 2026-02-22 00:09 | 35.04665 | 136.22556 | 24217 ft | 460 kts | 41° |
| 2026-02-22 00:10 | 35.07058 | 136.25181 | 24537 ft | 465 kts | 41° |
| 2026-02-22 00:10 | 35.09467 | 136.27836 | 24864 ft | 468 kts | 41° |
| 2026-02-22 00:10 | 35.11889 | 136.30511 | 25229 ft | 471 kts | 41° |
| 2026-02-22 00:10 | 35.14326 | 136.33206 | 25584 ft | 474 kts | 41° |
| 2026-02-22 00:11 | 35.16775 | 136.35913 | 25906 ft | 477 kts | 41° |
| 2026-02-22 00:11 | 35.19239 | 136.38651 | 26221 ft | 480 kts | 40° |
| 2026-02-22 00:11 | 35.21724 | 136.41406 | 26537 ft | 484 kts | 40° |
| 2026-02-22 00:11 | 35.24228 | 136.44176 | 26859 ft | 486 kts | 40° |
| 2026-02-22 00:12 | 35.26738 | 136.46955 | 27170 ft | 489 kts | 40° |
| 2026-02-22 00:12 | 35.29265 | 136.49760 | 27493 ft | 491 kts | 40° |
| 2026-02-22 00:12 | 35.31799 | 136.52576 | 27790 ft | 494 kts | 40° |
| 2026-02-22 00:12 | 35.34352 | 136.55415 | 28065 ft | 496 kts | 40° |
| 2026-02-22 00:13 | 35.36921 | 136.58247 | 28333 ft | 498 kts | 38° |
| 2026-02-22 00:13 | 35.39612 | 136.60934 | 28604 ft | 500 kts | 35° |
| 2026-02-22 00:13 | 35.42388 | 136.63506 | 28896 ft | 501 kts | 33° |
| 2026-02-22 00:13 | 35.45196 | 136.66030 | 29309 ft | 500 kts | 33° |
| 2026-02-22 00:14 | 35.47998 | 136.68541 | 29767 ft | 498 kts | 32° |
| 2026-02-22 00:14 | 35.50750 | 136.71029 | 30207 ft | 498 kts | 32° |
| 2026-02-22 00:14 | 35.53527 | 136.73567 | 30484 ft | 499 kts | 33° |
| 2026-02-22 00:14 | 35.56307 | 136.76132 | 30762 ft | 500 kts | 33° |
| 2026-02-22 00:15 | 35.59077 | 136.78707 | 31126 ft | 498 kts | 33° |
| 2026-02-22 00:15 | 35.61832 | 136.81275 | 31534 ft | 497 kts | 32° |
| 2026-02-22 00:15 | 35.64580 | 136.83841 | 31902 ft | 495 kts | 32° |
| 2026-02-22 00:15 | 35.67323 | 136.86403 | 32216 ft | 495 kts | 32° |
| 2026-02-22 00:16 | 35.70075 | 136.88946 | 32446 ft | 495 kts | 32° |
| 2026-02-22 00:16 | 35.72818 | 136.91517 | 32712 ft | 496 kts | 32° |
| 2026-02-22 00:16 | 35.75552 | 136.94102 | 33064 ft | 495 kts | 32° |
| 2026-02-22 00:16 | 35.78282 | 136.96669 | 33411 ft | 493 kts | 31° |
| 2026-02-22 00:17 | 35.81014 | 136.99226 | 33716 ft | 494 kts | 31° |
| 2026-02-22 00:17 | 35.83750 | 137.01786 | 34039 ft | 493 kts | 31° |
| 2026-02-22 00:17 | 35.86479 | 137.04343 | 34346 ft | 492 kts | 31° |
| 2026-02-22 00:17 | 35.89203 | 137.06897 | 34551 ft | 493 kts | 31° |
| 2026-02-22 00:18 | 35.91914 | 137.09506 | 34762 ft | 494 kts | 31° |
| 2026-02-22 00:18 | 35.94645 | 137.12090 | 35001 ft | 494 kts | 31° |
| 2026-02-22 00:18 | 35.97380 | 137.14645 | 35268 ft | 493 kts | 30° |
| 2026-02-22 00:18 | 36.00120 | 137.17201 | 35501 ft | 493 kts | 30° |
| 2026-02-22 00:19 | 36.02861 | 137.19760 | 35697 ft | 494 kts | 30° |
| 2026-02-22 00:19 | 36.05599 | 137.22337 | 35891 ft | 495 kts | 30° |
| 2026-02-22 00:19 | 36.08332 | 137.24922 | 36116 ft | 495 kts | 30° |
| 2026-02-22 00:19 | 36.11062 | 137.27510 | 36366 ft | 495 kts | 30° |
| 2026-02-22 00:20 | 36.13792 | 137.30100 | 36618 ft | 495 kts | 30° |
| 2026-02-22 00:20 | 36.16526 | 137.32691 | 36800 ft | 496 kts | 30° |
| 2026-02-22 00:20 | 36.19265 | 137.35288 | 36990 ft | 496 kts | 30° |
| 2026-02-22 00:20 | 36.22001 | 137.37885 | 37165 ft | 497 kts | 30° |
| 2026-02-22 00:21 | 36.27506 | 137.43117 | 37153 ft | 498 kts | 31° |
| 2026-02-22 00:21 | 36.32963 | 137.48360 | 37119 ft | 492 kts | 30° |
| 2026-02-22 00:22 | 36.38387 | 137.53464 | 37114 ft | 484 kts | 27° |
| 2026-02-22 00:22 | 36.43786 | 137.58486 | 37142 ft | 489 kts | 31° |
| 2026-02-22 00:23 | 36.49150 | 137.63778 | 37115 ft | 493 kts | 30° |
| 2026-02-22 00:23 | 36.54592 | 137.69033 | 37133 ft | 497 kts | 31° |
| 2026-02-22 00:24 | 36.60177 | 137.73927 | 37152 ft | 488 kts | 25° |
| 2026-02-22 00:24 | 36.65994 | 137.78116 | 37102 ft | 477 kts | 19° |
| 2026-02-22 00:25 | 36.71860 | 137.81981 | 37186 ft | 482 kts | 25° |
| 2026-02-22 00:25 | 36.77481 | 137.86676 | 37124 ft | 489 kts | 27° |
| 2026-02-22 00:26 | 36.83153 | 137.91378 | 37117 ft | 492 kts | 25° |
| 2026-02-22 00:26 | 36.88920 | 137.95945 | 37131 ft | 496 kts | 24° |
| 2026-02-22 00:27 | 36.94740 | 138.00456 | 37121 ft | 489 kts | 24° |
| 2026-02-22 00:27 | 37.00464 | 138.04963 | 37111 ft | 485 kts | 24° |
| 2026-02-22 00:28 | 37.06153 | 138.09454 | 37113 ft | 483 kts | 24° |
| 2026-02-22 00:28 | 37.11841 | 138.13909 | 37109 ft | 482 kts | 24° |
| 2026-02-22 00:29 | 37.17528 | 138.18376 | 37108 ft | 483 kts | 24° |
| 2026-02-22 00:29 | 37.23221 | 138.22869 | 37097 ft | 484 kts | 24° |
| 2026-02-22 00:30 | 37.28929 | 138.27388 | 37095 ft | 485 kts | 24° |
| 2026-02-22 00:30 | 37.34652 | 138.31928 | 37107 ft | 487 kts | 24° |
| 2026-02-22 00:31 | 37.40392 | 138.36489 | 37096 ft | 489 kts | 24° |
| 2026-02-22 00:31 | 37.46115 | 138.41046 | 37114 ft | 490 kts | 24° |
| 2026-02-22 00:32 | 37.51884 | 138.45647 | 37099 ft | 491 kts | 24° |
| 2026-02-22 00:32 | 37.57660 | 138.50264 | 37094 ft | 492 kts | 24° |
| 2026-02-22 00:33 | 37.63434 | 138.54887 | 37092 ft | 492 kts | 24° |
| 2026-02-22 00:33 | 37.69212 | 138.59521 | 37096 ft | 492 kts | 24° |
| 2026-02-22 00:34 | 37.74981 | 138.64157 | 37089 ft | 491 kts | 24° |
| 2026-02-22 00:34 | 37.80744 | 138.68798 | 37094 ft | 491 kts | 24° |
| 2026-02-22 00:35 | 37.86498 | 138.73439 | 37094 ft | 490 kts | 24° |
| 2026-02-22 00:35 | 37.92242 | 138.78081 | 37114 ft | 490 kts | 25° |
| 2026-02-22 00:36 | 37.97985 | 138.82731 | 37091 ft | 489 kts | 25° |
| 2026-02-22 00:36 | 38.03717 | 138.87382 | 37093 ft | 489 kts | 25° |
| 2026-02-22 00:37 | 38.09442 | 138.92034 | 37099 ft | 488 kts | 25° |
| 2026-02-22 00:37 | 38.15158 | 138.96686 | 37087 ft | 488 kts | 25° |
| 2026-02-22 00:38 | 38.20870 | 139.01340 | 37094 ft | 487 kts | 25° |
| 2026-02-22 00:38 | 38.26574 | 139.05997 | 37092 ft | 487 kts | 25° |
| 2026-02-22 00:39 | 38.32275 | 139.10661 | 37089 ft | 487 kts | 25° |
| 2026-02-22 00:39 | 38.37971 | 139.15330 | 37099 ft | 486 kts | 25° |
| 2026-02-22 00:40 | 38.43660 | 139.20003 | 37091 ft | 486 kts | 25° |
| 2026-02-22 00:40 | 38.49347 | 139.24683 | 37096 ft | 487 kts | 25° |
| 2026-02-22 00:41 | 38.55036 | 139.29373 | 37097 ft | 487 kts | 25° |
| 2026-02-22 00:41 | 38.60725 | 139.34072 | 37087 ft | 487 kts | 25° |
| 2026-02-22 00:42 | 38.72086 | 139.43485 | 37086 ft | 486 kts | 25° |
| 2026-02-22 00:43 | 38.77721 | 139.48166 | 37097 ft | 486 kts | 25° |
| 2026-02-22 00:43 | 38.83393 | 139.52888 | 37105 ft | 486 kts | 25° |
| 2026-02-22 00:44 | 38.89068 | 139.57621 | 37091 ft | 486 kts | 25° |
| 2026-02-22 00:44 | 38.94731 | 139.62355 | 37097 ft | 486 kts | 25° |
| 2026-02-22 00:45 | 39.03250 | 139.69399 | 37096 ft | 482 kts | 21° |
| 2026-02-22 00:46 | 39.09279 | 139.72847 | 37100 ft | 472 kts | 13° |
| 2026-02-22 00:46 | 39.15386 | 139.75986 | 37097 ft | 472 kts | 13° |
| 2026-02-22 00:47 | 39.21479 | 139.79186 | 37091 ft | 473 kts | 14° |
| 2026-02-22 00:47 | 39.27560 | 139.82454 | 37099 ft | 474 kts | 14° |
| 2026-02-22 00:48 | 39.33640 | 139.85746 | 37126 ft | 474 kts | 14° |
| 2026-02-22 00:48 | 39.39734 | 139.89051 | 37103 ft | 475 kts | 14° |
| 2026-02-22 00:49 | 39.45835 | 139.92363 | 37104 ft | 476 kts | 14° |
| 2026-02-22 00:49 | 39.51937 | 139.95681 | 37121 ft | 476 kts | 14° |
| 2026-02-22 00:50 | 39.58044 | 139.99008 | 37107 ft | 476 kts | 14° |
| 2026-02-22 00:50 | 39.63112 | 140.01775 | 37105 ft | 476 kts | 14° |
| 2026-02-22 00:51 | 39.69213 | 140.05111 | 37103 ft | 475 kts | 14° |
| 2026-02-22 00:51 | 39.75276 | 140.08564 | 37109 ft | 477 kts | 17° |
| 2026-02-22 00:52 | 39.81265 | 140.12306 | 37108 ft | 478 kts | 18° |
| 2026-02-22 00:52 | 39.87242 | 140.16074 | 37116 ft | 477 kts | 18° |
| 2026-02-22 00:53 | 39.93233 | 140.19811 | 37126 ft | 477 kts | 18° |
| 2026-02-22 00:53 | 39.99222 | 140.23530 | 37122 ft | 476 kts | 18° |
| 2026-02-22 00:54 | 40.05205 | 140.27248 | 37107 ft | 476 kts | 18° |
| 2026-02-22 00:54 | 40.11175 | 140.30967 | 37132 ft | 475 kts | 18° |
| 2026-02-22 00:55 | 40.17139 | 140.34690 | 37130 ft | 475 kts | 18° |
| 2026-02-22 00:55 | 40.23101 | 140.38419 | 37131 ft | 475 kts | 18° |
| 2026-02-22 00:56 | 40.29058 | 140.42153 | 37131 ft | 475 kts | 18° |
| 2026-02-22 00:56 | 40.35012 | 140.45890 | 37118 ft | 474 kts | 18° |
| 2026-02-22 00:57 | 40.40948 | 140.49625 | 37144 ft | 474 kts | 18° |
| 2026-02-22 00:57 | 40.46891 | 140.53366 | 37122 ft | 473 kts | 18° |
| 2026-02-22 00:58 | 40.52827 | 140.57123 | 37114 ft | 474 kts | 18° |
| 2026-02-22 00:58 | 40.58770 | 140.60887 | 37112 ft | 475 kts | 18° |
| 2026-02-22 00:59 | 40.64729 | 140.64666 | 37087 ft | 476 kts | 18° |
| 2026-02-22 00:59 | 40.70704 | 140.68463 | 37086 ft | 477 kts | 18° |
| 2026-02-22 01:00 | 40.76735 | 140.72071 | 37069 ft | 473 kts | 13° |
| 2026-02-22 01:00 | 40.82904 | 140.74992 | 37124 ft | 471 kts | 11° |
| 2026-02-22 01:01 | 40.89062 | 140.77964 | 37110 ft | 471 kts | 13° |
| 2026-02-22 01:01 | 40.95159 | 140.80994 | 37130 ft | 471 kts | 13° |
| 2026-02-22 01:02 | 41.01304 | 140.84043 | 37114 ft | 472 kts | 13° |
| 2026-02-22 01:02 | 41.07447 | 140.87093 | 37110 ft | 471 kts | 13° |
| 2026-02-22 01:03 | 41.13583 | 140.90147 | 37117 ft | 471 kts | 13° |
| 2026-02-22 01:03 | 41.19722 | 140.93208 | 37115 ft | 471 kts | 13° |
| 2026-02-22 01:04 | 41.25857 | 140.96273 | 37118 ft | 471 kts | 13° |
| 2026-02-22 01:04 | 41.31985 | 140.99341 | 37119 ft | 471 kts | 12° |
| 2026-02-22 01:05 | 41.38133 | 141.02348 | 37113 ft | 470 kts | 12° |
| 2026-02-22 01:05 | 41.44280 | 141.05361 | 37125 ft | 471 kts | 12° |
| 2026-02-22 01:06 | 41.50432 | 141.08377 | 37112 ft | 472 kts | 12° |
| 2026-02-22 01:06 | 41.56583 | 141.11426 | 37117 ft | 472 kts | 12° |
| 2026-02-22 01:07 | 41.62740 | 141.14486 | 37121 ft | 472 kts | 12° |
| 2026-02-22 01:07 | 41.68854 | 141.17524 | 37107 ft | 472 kts | 13° |
| 2026-02-22 01:08 | 41.75002 | 141.20616 | 37122 ft | 472 kts | 13° |
| 2026-02-22 01:08 | 41.78087 | 141.22175 | 36680 ft | 478 kts | 13° |
| 2026-02-22 01:08 | 41.81196 | 141.23747 | 36164 ft | 475 kts | 13° |
| 2026-02-22 01:08 | 41.84280 | 141.25311 | 35508 ft | 474 kts | 13° |
| 2026-02-22 01:09 | 41.87363 | 141.26872 | 34838 ft | 473 kts | 13° |
| 2026-02-22 01:09 | 41.90437 | 141.28432 | 34212 ft | 472 kts | 13° |
| 2026-02-22 01:09 | 41.93498 | 141.30015 | 33487 ft | 472 kts | 15° |
| 2026-02-22 01:09 | 41.96455 | 141.32038 | 32751 ft | 481 kts | 25° |
| 2026-02-22 01:10 | 41.99190 | 141.34677 | 32043 ft | 488 kts | 35° |
| 2026-02-22 01:10 | 42.01670 | 141.37806 | 31325 ft | 490 kts | 39° |
| 2026-02-22 01:10 | 42.04100 | 141.41039 | 30523 ft | 492 kts | 39° |
| 2026-02-22 01:10 | 42.06530 | 141.44272 | 29631 ft | 492 kts | 39° |
| 2026-02-22 01:11 | 42.08987 | 141.47480 | 28687 ft | 492 kts | 39° |
| 2026-02-22 01:11 | 42.11456 | 141.50657 | 27765 ft | 491 kts | 39° |
| 2026-02-22 01:11 | 42.13958 | 141.53775 | 26823 ft | 489 kts | 36° |
| 2026-02-22 01:11 | 42.16613 | 141.56591 | 26181 ft | 480 kts | 32° |
| 2026-02-22 01:12 | 42.19302 | 141.59216 | 25471 ft | 475 kts | 31° |
| 2026-02-22 01:12 | 42.21985 | 141.61782 | 24800 ft | 470 kts | 31° |
| 2026-02-22 01:12 | 42.24633 | 141.64342 | 24137 ft | 466 kts | 32° |
| 2026-02-22 01:12 | 42.27245 | 141.66917 | 23399 ft | 463 kts | 32° |
| 2026-02-22 01:13 | 42.29822 | 141.69496 | 22653 ft | 459 kts | 33° |
| 2026-02-22 01:13 | 42.32364 | 141.72064 | 21967 ft | 454 kts | 33° |
| 2026-02-22 01:13 | 42.34877 | 141.74609 | 21305 ft | 449 kts | 33° |
| 2026-02-22 01:13 | 42.37364 | 141.77129 | 20638 ft | 445 kts | 33° |
| 2026-02-22 01:14 | 42.39832 | 141.79627 | 19993 ft | 441 kts | 33° |
| 2026-02-22 01:14 | 42.42277 | 141.82104 | 19298 ft | 438 kts | 34° |
| 2026-02-22 01:14 | 42.44717 | 141.84581 | 18609 ft | 437 kts | 34° |
| 2026-02-22 01:14 | 42.47138 | 141.87042 | 17878 ft | 434 kts | 34° |
| 2026-02-22 01:15 | 42.49544 | 141.89490 | 17189 ft | 430 kts | 34° |
| 2026-02-22 01:15 | 42.51918 | 141.91908 | 16537 ft | 426 kts | 34° |
| 2026-02-22 01:15 | 42.54400 | 141.94022 | 15869 ft | 417 kts | 19° |
| 2026-02-22 01:15 | 42.57158 | 141.94920 | 15297 ft | 404 kts | 1° |
| 2026-02-22 01:16 | 42.59924 | 141.94764 | 14670 ft | 394 kts | 347° |
| 2026-02-22 01:16 | 42.62615 | 141.94146 | 14061 ft | 391 kts | 346° |
| 2026-02-22 01:16 | 42.65252 | 141.93514 | 13385 ft | 389 kts | 347° |
| 2026-02-22 01:16 | 42.67904 | 141.92893 | 12739 ft | 385 kts | 347° |
| 2026-02-22 01:17 | 42.70514 | 141.92304 | 12503 ft | 373 kts | 347° |
| 2026-02-22 01:17 | 42.73030 | 141.91753 | 12279 ft | 361 kts | 347° |
| 2026-02-22 01:17 | 42.75468 | 141.91221 | 12079 ft | 349 kts | 347° |
| 2026-02-22 01:17 | 42.77836 | 141.90705 | 11688 ft | 344 kts | 347° |
| 2026-02-22 01:18 | 42.80209 | 141.90184 | 11106 ft | 346 kts | 347° |
| 2026-02-22 01:18 | 42.82597 | 141.89659 | 10520 ft | 348 kts | 348° |
| 2026-02-22 01:18 | 42.84995 | 141.89133 | 9925 ft | 350 kts | 348° |
| 2026-02-22 01:18 | 42.87358 | 141.88618 | 9857 ft | 335 kts | 348° |
| 2026-02-22 01:19 | 42.89584 | 141.88135 | 9722 ft | 314 kts | 348° |
| 2026-02-22 01:19 | 42.91682 | 141.87676 | 9563 ft | 299 kts | 347° |
| 2026-02-22 01:19 | 42.93721 | 141.87226 | 9267 ft | 296 kts | 347° |
| 2026-02-22 01:19 | 42.95747 | 141.86780 | 8948 ft | 294 kts | 347° |
| 2026-02-22 01:20 | 42.97763 | 141.86336 | 8598 ft | 293 kts | 347° |
| 2026-02-22 01:20 | 42.99774 | 141.85893 | 8292 ft | 292 kts | 347° |
| 2026-02-22 01:20 | 43.01773 | 141.85453 | 7979 ft | 291 kts | 347° |
| 2026-02-22 01:20 | 43.03767 | 141.84989 | 7631 ft | 289 kts | 342° |
| 2026-02-22 01:21 | 43.05524 | 141.83807 | 7318 ft | 278 kts | 314° |
| 2026-02-22 01:21 | 43.06632 | 141.81743 | 7026 ft | 266 kts | 288° |
| 2026-02-22 01:21 | 43.06999 | 141.79324 | 6681 ft | 258 kts | 265° |
| 2026-02-22 01:21 | 43.06722 | 141.76928 | 6353 ft | 253 kts | 248° |
| 2026-02-22 01:22 | 43.05902 | 141.74843 | 6068 ft | 247 kts | 231° |
| 2026-02-22 01:22 | 43.04848 | 141.73049 | 5961 ft | 237 kts | 228° |
| 2026-02-22 01:22 | 43.03814 | 141.71356 | 5887 ft | 226 kts | 228° |
| 2026-02-22 01:22 | 43.02844 | 141.69757 | 5814 ft | 211 kts | 228° |
| 2026-02-22 01:23 | 43.01946 | 141.68267 | 5719 ft | 195 kts | 228° |
| 2026-02-22 01:23 | 43.01126 | 141.66899 | 5584 ft | 177 kts | 228° |
| 2026-02-22 01:23 | 43.00263 | 141.65845 | 5436 ft | 159 kts | 200° |
| 2026-02-22 01:23 | 42.99221 | 141.65843 | 5291 ft | 141 kts | 177° |
| 2026-02-22 01:24 | 42.98280 | 141.65903 | 4952 ft | 133 kts | 182° |
| 2026-02-22 01:24 | 42.97366 | 141.65951 | 4524 ft | 131 kts | 180° |
| 2026-02-22 01:24 | 42.96462 | 141.65993 | 4120 ft | 128 kts | 180° |
| 2026-02-22 01:24 | 42.95576 | 141.66047 | 3705 ft | 127 kts | 178° |
| 2026-02-22 01:25 | 42.94712 | 141.66119 | 3319 ft | 124 kts | 177° |
| 2026-02-22 01:25 | 42.93879 | 141.66206 | 3182 ft | 122 kts | 175° |
| 2026-02-22 01:25 | 42.93018 | 141.66328 | 3013 ft | 126 kts | 174° |
| 2026-02-22 01:25 | 42.92146 | 141.66468 | 2855 ft | 126 kts | 174° |
| 2026-02-22 01:26 | 42.91277 | 141.66616 | 2657 ft | 125 kts | 173° |
| 2026-02-22 01:26 | 42.90415 | 141.66766 | 2488 ft | 125 kts | 173° |
| 2026-02-22 01:26 | 42.89555 | 141.66917 | 2309 ft | 124 kts | 173° |
| 2026-02-22 01:26 | 42.88701 | 141.67068 | 2150 ft | 123 kts | 173° |
| 2026-02-22 01:27 | 42.87850 | 141.67218 | 1977 ft | 123 kts | 172° |
| 2026-02-22 01:27 | 42.87004 | 141.67368 | 1804 ft | 123 kts | 172° |
| 2026-02-22 01:27 | 42.86150 | 141.67519 | 1633 ft | 125 kts | 172° |
| 2026-02-22 01:27 | 42.85283 | 141.67672 | 1453 ft | 126 kts | 172° |
| 2026-02-22 01:28 | 42.84409 | 141.67827 | 1273 ft | 127 kts | 172° |
| 2026-02-22 01:28 | 42.83526 | 141.67983 | 1088 ft | 128 kts | 172° |
| 2026-02-22 01:28 | 42.82648 | 141.68142 | 908 ft | 127 kts | 173° |
| 2026-02-22 01:28 | 42.81760 | 141.68294 | 702 ft | 131 kts | 172° |
| 2026-02-22 01:29 | 42.80846 | 141.68460 | 527 ft | 132 kts | 172° |
| 2026-02-22 01:29 | 42.79940 | 141.68617 | 334 ft | 130 kts | 173° |
| 2026-02-22 01:29 | 42.79038 | 141.68776 | 159 ft | 130 kts | 172° |
| 2026-02-22 01:29 | 42.78164 | 141.68932 | 64 ft | 115 kts | 173° |
| 2026-02-22 01:30 | 42.77519 | 141.69044 | 59 ft | 72 kts | 173° |
| 2026-02-22 01:30 | 42.77175 | 141.69106 | 63 ft | 28 kts | 173° |
| 2026-02-22 01:30 | 42.77055 | 141.69036 | 68 ft | 20 kts | 266° |
| 2026-02-22 01:30 | 42.77126 | 141.68887 | 63 ft | 20 kts | 344° |
| 2026-02-22 01:31 | 42.77263 | 141.68861 | 60 ft | 20 kts | 353° |
| 2026-02-22 01:31 | 42.77397 | 141.68838 | 65 ft | 19 kts | 352° |
| 2026-02-22 01:31 | 42.77501 | 141.68765 | 61 ft | 17 kts | 304° |
| 2026-02-22 01:31 | 42.77563 | 141.68637 | 66 ft | 16 kts | 327° |
| 2026-02-22 01:32 | 42.77672 | 141.68606 | 66 ft | 16 kts | 353° |
| 2026-02-22 01:32 | 42.77778 | 141.68588 | 65 ft | 15 kts | 352° |
| 2026-02-22 01:32 | 42.77881 | 141.68569 | 61 ft | 16 kts | 352° |
| 2026-02-22 01:32 | 42.78008 | 141.68545 | 65 ft | 22 kts | 352° |
| 2026-02-22 01:33 | 42.78180 | 141.68515 | 59 ft | 28 kts | 353° |
| 2026-02-22 01:33 | 42.78362 | 141.68484 | 65 ft | 23 kts | 353° |
| 2026-02-22 01:33 | 42.78457 | 141.68415 | 63 ft | 15 kts | 307° |
| 2026-02-22 01:33 | 42.78522 | 141.68306 | 60 ft | 15 kts | 306° |
| 2026-02-22 01:34 | 42.78567 | 141.68217 | 64 ft | 5 kts | 305° |
| 2026-02-22 01:34 | 42.78570 | 141.68212 | 61 ft | 1 kts | 305° |
| 2026-02-22 01:34 | 42.78572 | 141.68207 | 64 ft | 0 kts | 305° |